createdAt,value
2019-05-15T19:13:43.542Z,24.51
2019-05-15T19:16:13.077Z,24.51
2019-05-15T19:18:42.339Z,24.65
2019-05-15T19:21:11.609Z,24.51
2019-05-15T19:23:40.903Z,24.60
2019-05-15T19:26:11.730Z,24.62
2019-05-15T19:28:41.135Z,24.64
2019-05-15T19:31:22.099Z,24.68
2019-05-15T19:33:41.407Z,24.68
2019-05-15T19:36:10.686Z,24.66
2019-05-15T19:38:39.955Z,24.62
2019-05-15T19:41:09.738Z,24.63
2019-05-15T19:43:39.099Z,24.60
2019-05-15T19:46:08.352Z,24.61
2019-05-15T19:48:38.626Z,24.63
2019-05-15T19:51:09.065Z,24.60
2019-05-15T19:53:38.574Z,24.56
2019-05-15T19:56:08.507Z,24.58
2019-05-15T19:58:37.863Z,24.54
2019-05-15T20:01:08.108Z,24.49
2019-05-15T20:03:49.201Z,24.49
2019-05-15T20:06:08.648Z,24.49
2019-05-15T20:08:38.989Z,24.44
2019-05-15T20:11:10.471Z,24.40
2019-05-15T20:13:39.539Z,24.37
2019-05-15T20:16:08.980Z,24.37
2019-05-15T20:18:38.643Z,24.36
2019-05-15T20:21:08.886Z,24.31
2019-05-15T20:23:38.356Z,24.31
2019-05-15T20:26:08.724Z,24.29
2019-05-15T20:28:39.242Z,24.27
2019-05-15T20:31:08.685Z,24.30
2019-05-15T20:33:38.086Z,24.26
2019-05-15T20:36:09.122Z,24.23
2019-05-15T20:38:39.525Z,24.23
2019-05-15T20:41:09.172Z,24.21
2019-05-15T20:43:38.724Z,24.21
2019-05-15T20:46:08.534Z,24.18
2019-05-15T20:48:38.348Z,24.15
2019-05-15T20:51:07.697Z,24.15
2019-05-15T20:53:38.055Z,24.15
2019-05-15T20:56:08.342Z,24.13
2019-05-15T20:58:38.314Z,24.14
2019-05-15T21:01:09.303Z,24.10
2019-05-15T21:03:38.785Z,24.09
2019-05-15T21:06:09.139Z,24.06
2019-05-15T21:08:39.095Z,24.04
2019-05-15T21:11:11.981Z,24.04
2019-05-15T21:13:39.529Z,24.02
2019-05-15T21:16:09.139Z,23.97
2019-05-15T21:18:38.428Z,23.97
2019-05-15T21:21:10.447Z,23.97
2019-05-15T21:23:39.436Z,23.95
2019-05-15T21:26:11.057Z,23.95
2019-05-15T21:28:39.675Z,23.92
2019-05-15T21:31:09.234Z,23.90
2019-05-15T21:33:38.682Z,23.90
2019-05-15T21:36:08.057Z,23.88
2019-05-15T21:38:38.928Z,23.88
2019-05-15T21:41:08.251Z,23.87
2019-05-15T21:43:37.534Z,23.86
2019-05-15T21:46:08.515Z,23.85
2019-05-15T21:48:38.312Z,23.82
2019-05-15T21:51:11.213Z,23.79
2019-05-15T21:53:39.018Z,23.79
2019-05-15T21:56:08.331Z,23.78
2019-05-15T21:58:37.801Z,23.77
2019-05-15T22:01:08.081Z,23.78
2019-05-15T22:03:38.880Z,23.74
2019-05-15T22:06:08.788Z,23.75
2019-05-15T22:08:39.185Z,23.68
2019-05-15T22:11:08.460Z,23.71
2019-05-15T22:13:39.334Z,23.69
2019-05-15T22:16:08.868Z,23.68
2019-05-15T22:18:38.539Z,23.67
2019-05-15T22:21:08.050Z,23.67
2019-05-15T22:23:38.475Z,23.63
2019-05-15T22:26:07.953Z,23.63
2019-05-15T22:28:38.595Z,23.63
2019-05-15T22:31:08.865Z,23.62
2019-05-15T22:33:38.428Z,23.60
2019-05-15T22:36:08.445Z,23.58
2019-05-15T22:38:37.824Z,23.58
2019-05-15T22:41:10.264Z,23.52
2019-05-15T22:43:39.222Z,23.52
2019-05-15T22:46:10.941Z,23.47
2019-05-15T22:48:40.335Z,23.47
2019-05-15T22:51:09.589Z,23.49
2019-05-15T22:53:38.854Z,23.49
2019-05-15T22:56:09.349Z,23.49
2019-05-15T22:58:39.730Z,23.50
2019-05-15T23:01:09.412Z,23.50
2019-05-15T23:03:39.554Z,23.47
2019-05-15T23:06:08.965Z,23.46
2019-05-15T23:08:38.650Z,23.46
2019-05-15T23:11:09.587Z,23.47
2019-05-15T23:13:39.973Z,23.44
2019-05-15T23:16:09.231Z,23.40
2019-05-15T23:18:38.489Z,23.40
2019-05-15T23:21:08.907Z,23.37
2019-05-15T23:23:38.439Z,23.39
2019-05-15T23:26:07.699Z,23.32
2019-05-15T23:28:38.676Z,23.34
2019-05-15T23:31:08.349Z,23.32
2019-05-15T23:33:38.704Z,23.32
2019-05-15T23:36:08.120Z,23.32
2019-05-15T23:38:38.441Z,23.32
2019-05-15T23:41:08.325Z,23.30
2019-05-15T23:43:38.878Z,23.27
2019-05-15T23:46:08.361Z,23.26
2019-05-15T23:48:38.164Z,23.26
2019-05-15T23:51:08.474Z,23.25
2019-05-15T23:53:38.028Z,23.26
2019-05-15T23:56:09.407Z,23.23
2019-05-15T23:58:38.341Z,23.23
